DNKN/KAN METAR and TAF weather

Enter ICAO airport designator
Station Type Date Time Source
DNKN METAR 2019/04/25 21:00 UTC NOAA

DNKN 252100Z 04004KT 7000 NSC 30/03 Q1014 NOSIG


Station Type Date Time Source
DNKN Decoded METAR 2019/04/25 21:00 UTC NOAA

Kano, Nigeria (DNKN) 12-03N 008-32E 481M
Apr 25, 2019 - 05:00 PM EDT / 2019.04.25 2100 UTC
Wind: from the NE (040 degrees) at 5 MPH (4 KT):0
Visibility: 4 mile(s):0
Temperature: 86 F (30 C)
Dew Point: 37 F (3 C)
Relative Humidity: 17%
Pressure (altimeter): 29.94 in. Hg (1014 hPa)
ob: DNKN 252100Z 04004KT 7000 NSC 30/03 Q1014 NOSIG
cycle: 21

Station Type Date Time Source
DNKN TAF 2019/04/25 18:21 UTC NOAA

TAF DNKN 251550Z 2518/2624 05010KT CAVOK

Example: see airport list